sensor_id;sensor_type;location;lat;lon;timestamp;temperature;humidity
34985;DHT22;21190;58.750;17.004;2023-07-31T00:00:05;14.80;99.90
34985;DHT22;21190;58.750;17.004;2023-07-31T00:02:32;14.70;99.90
34985;DHT22;21190;58.750;17.004;2023-07-31T00:04:59;14.70;99.90
34985;DHT22;21190;58.750;17.004;2023-07-31T00:07:27;14.80;99.90
34985;DHT22;21190;58.750;17.004;2023-07-31T00:09:54;14.70;99.90
34985;DHT22;21190;58.750;17.004;2023-07-31T00:12:20;14.70;99.90
34985;DHT22;21190;58.750;17.004;2023-07-31T00:14:47;14.70;99.90
34985;DHT22;21190;58.750;17.004;2023-07-31T00:17:17;14.80;99.90
34985;DHT22;21190;58.750;17.004;2023-07-31T00:19:44;14.80;99.90
34985;DHT22;21190;58.750;17.004;2023-07-31T00:22:12;14.80;99.90
34985;DHT22;21190;58.750;17.004;2023-07-31T00:24:39;14.90;99.90
34985;DHT22;21190;58.750;17.004;2023-07-31T00:27:06;14.90;99.90
34985;DHT22;21190;58.750;17.004;2023-07-31T00:29:33;14.90;99.90
34985;DHT22;21190;58.750;17.004;2023-07-31T00:32:00;14.90;99.90
34985;DHT22;21190;58.750;17.004;2023-07-31T00:34:27;15.00;99.90
34985;DHT22;21190;58.750;17.004;2023-07-31T00:36:54;15.00;99.90
34985;DHT22;21190;58.750;17.004;2023-07-31T00:39:21;15.00;99.90
34985;DHT22;21190;58.750;17.004;2023-07-31T00:41:48;15.00;99.90
34985;DHT22;21190;58.750;17.004;2023-07-31T00:44:15;15.10;99.90
34985;DHT22;21190;58.750;17.004;2023-07-31T00:46:42;15.00;99.90
34985;DHT22;21190;58.750;17.004;2023-07-31T00:49:10;15.10;99.90
34985;DHT22;21190;58.750;17.004;2023-07-31T00:51:37;15.10;99.90
34985;DHT22;21190;58.750;17.004;2023-07-31T00:54:06;15.10;99.90
34985;DHT22;21190;58.750;17.004;2023-07-31T00:56:33;15.10;99.90
34985;DHT22;21190;58.750;17.004;2023-07-31T00:59:00;15.10;99.90
34985;DHT22;21190;58.750;17.004;2023-07-31T01:01:27;15.20;99.90
34985;DHT22;21190;58.750;17.004;2023-07-31T01:03:55;15.10;99.90
34985;DHT22;21190;58.750;17.004;2023-07-31T01:06:33;15.10;99.90
34985;DHT22;21190;58.750;17.004;2023-07-31T01:09:04;15.00;99.90
34985;DHT22;21190;58.750;17.004;2023-07-31T01:11:42;15.00;99.90
34985;DHT22;21190;58.750;17.004;2023-07-31T01:14:09;15.00;99.90
34985;DHT22;21190;58.750;17.004;2023-07-31T01:16:36;15.00;99.90
34985;DHT22;21190;58.750;17.004;2023-07-31T01:19:05;15.00;99.90
34985;DHT22;21190;58.750;17.004;2023-07-31T01:24:27;15.10;99.90
34985;DHT22;21190;58.750;17.004;2023-07-31T01:27:06;15.00;99.90
34985;DHT22;21190;58.750;17.004;2023-07-31T01:29:47;15.00;99.90
34985;DHT22;21190;58.750;17.004;2023-07-31T01:32:17;15.00;99.90
34985;DHT22;21190;58.750;17.004;2023-07-31T01:34:46;15.00;99.90
34985;DHT22;21190;58.750;17.004;2023-07-31T01:37:13;15.00;99.90
34985;DHT22;21190;58.750;17.004;2023-07-31T01:39:40;14.90;99.90
34985;DHT22;21190;58.750;17.004;2023-07-31T01:42:07;14.90;99.90
34985;DHT22;21190;58.750;17.004;2023-07-31T01:44:34;14.90;99.90
34985;DHT22;21190;58.750;17.004;2023-07-31T01:47:01;14.80;99.90
34985;DHT22;21190;58.750;17.004;2023-07-31T01:49:28;14.80;99.90
34985;DHT22;21190;58.750;17.004;2023-07-31T01:51:55;14.80;99.90
34985;DHT22;21190;58.750;17.004;2023-07-31T01:54:22;14.80;99.90
34985;DHT22;21190;58.750;17.004;2023-07-31T01:56:49;14.70;99.90
34985;DHT22;21190;58.750;17.004;2023-07-31T01:59:16;14.70;99.90
34985;DHT22;21190;58.750;17.004;2023-07-31T02:01:43;14.60;99.90
34985;DHT22;21190;58.750;17.004;2023-07-31T02:04:10;14.60;99.90
34985;DHT22;21190;58.750;17.004;2023-07-31T02:06:37;14.50;99.90
34985;DHT22;21190;58.750;17.004;2023-07-31T02:09:04;14.50;99.90
34985;DHT22;21190;58.750;17.004;2023-07-31T02:11:31;14.50;99.90
34985;DHT22;21190;58.750;17.004;2023-07-31T02:13:58;14.50;99.90
34985;DHT22;21190;58.750;17.004;2023-07-31T02:16:25;14.50;99.90
34985;DHT22;21190;58.750;17.004;2023-07-31T02:18:52;14.50;99.90
34985;DHT22;21190;58.750;17.004;2023-07-31T02:21:19;14.60;99.90
34985;DHT22;21190;58.750;17.004;2023-07-31T02:23:46;14.60;99.90
34985;DHT22;21190;58.750;17.004;2023-07-31T02:26:13;14.60;99.90
34985;DHT22;21190;58.750;17.004;2023-07-31T02:28:40;14.60;99.90
34985;DHT22;21190;58.750;17.004;2023-07-31T02:31:09;14.60;99.90
34985;DHT22;21190;58.750;17.004;2023-07-31T02:33:36;14.50;99.90
34985;DHT22;21190;58.750;17.004;2023-07-31T02:36:03;14.50;99.90
34985;DHT22;21190;58.750;17.004;2023-07-31T02:38:30;14.40;99.90
34985;DHT22;21190;58.750;17.004;2023-07-31T02:40:57;14.40;99.90
34985;DHT22;21190;58.750;17.004;2023-07-31T02:43:24;14.40;99.90
34985;DHT22;21190;58.750;17.004;2023-07-31T02:45:52;14.40;99.90
34985;DHT22;21190;58.750;17.004;2023-07-31T02:48:19;14.60;99.90
34985;DHT22;21190;58.750;17.004;2023-07-31T02:50:47;14.70;99.90
34985;DHT22;21190;58.750;17.004;2023-07-31T02:53:14;14.70;99.90
34985;DHT22;21190;58.750;17.004;2023-07-31T02:55:41;14.70;99.90
34985;DHT22;21190;58.750;17.004;2023-07-31T02:58:08;14.70;99.90
34985;DHT22;21190;58.750;17.004;2023-07-31T03:00:35;14.70;99.90
34985;DHT22;21190;58.750;17.004;2023-07-31T03:03:02;14.70;99.90
34985;DHT22;21190;58.750;17.004;2023-07-31T03:05:29;14.40;99.90
34985;DHT22;21190;58.750;17.004;2023-07-31T03:07:56;14.30;99.90
34985;DHT22;21190;58.750;17.004;2023-07-31T03:10:23;14.40;99.90
34985;DHT22;21190;58.750;17.004;2023-07-31T03:12:50;14.40;99.90
34985;DHT22;21190;58.750;17.004;2023-07-31T03:15:17;14.40;99.90
34985;DHT22;21190;58.750;17.004;2023-07-31T03:17:44;14.50;99.90
34985;DHT22;21190;58.750;17.004;2023-07-31T03:20:11;14.50;99.90
34985;DHT22;21190;58.750;17.004;2023-07-31T03:22:38;14.50;99.90
34985;DHT22;21190;58.750;17.004;2023-07-31T03:25:05;14.60;99.90
34985;DHT22;21190;58.750;17.004;2023-07-31T03:27:32;14.60;99.90
34985;DHT22;21190;58.750;17.004;2023-07-31T03:29:59;14.50;99.90
34985;DHT22;21190;58.750;17.004;2023-07-31T03:32:27;14.50;99.90
34985;DHT22;21190;58.750;17.004;2023-07-31T03:34:54;14.50;99.90
34985;DHT22;21190;58.750;17.004;2023-07-31T03:37:21;14.50;99.90
34985;DHT22;21190;58.750;17.004;2023-07-31T03:39:48;14.50;99.90
34985;DHT22;21190;58.750;17.004;2023-07-31T03:42:15;14.40;99.90
34985;DHT22;21190;58.750;17.004;2023-07-31T03:44:42;14.40;99.90
34985;DHT22;21190;58.750;17.004;2023-07-31T03:47:09;14.30;99.90
34985;DHT22;21190;58.750;17.004;2023-07-31T03:49:36;14.30;99.90
34985;DHT22;21190;58.750;17.004;2023-07-31T03:52:03;14.20;99.90
34985;DHT22;21190;58.750;17.004;2023-07-31T03:54:31;14.20;99.90
34985;DHT22;21190;58.750;17.004;2023-07-31T03:56:58;14.10;99.90
34985;DHT22;21190;58.750;17.004;2023-07-31T03:59:25;14.10;99.90
34985;DHT22;21190;58.750;17.004;2023-07-31T04:01:52;14.10;99.90
34985;DHT22;21190;58.750;17.004;2023-07-31T04:04:19;14.00;99.90
34985;DHT22;21190;58.750;17.004;2023-07-31T04:06:46;14.00;99.90
34985;DHT22;21190;58.750;17.004;2023-07-31T04:09:13;14.00;99.90
34985;DHT22;21190;58.750;17.004;2023-07-31T04:11:40;13.90;99.90
34985;DHT22;21190;58.750;17.004;2023-07-31T04:14:07;13.90;99.90
34985;DHT22;21190;58.750;17.004;2023-07-31T04:16:34;13.90;99.90
34985;DHT22;21190;58.750;17.004;2023-07-31T04:19:01;13.90;99.90
34985;DHT22;21190;58.750;17.004;2023-07-31T04:21:29;13.90;99.90
34985;DHT22;21190;58.750;17.004;2023-07-31T04:23:56;13.80;99.90
34985;DHT22;21190;58.750;17.004;2023-07-31T04:26:23;13.80;99.90
34985;DHT22;21190;58.750;17.004;2023-07-31T04:28:50;13.80;99.90
34985;DHT22;21190;58.750;17.004;2023-07-31T04:31:17;13.70;99.90
34985;DHT22;21190;58.750;17.004;2023-07-31T04:33:44;13.70;99.90
34985;DHT22;21190;58.750;17.004;2023-07-31T04:36:11;13.70;99.90
34985;DHT22;21190;58.750;17.004;2023-07-31T04:38:38;13.70;99.90
34985;DHT22;21190;58.750;17.004;2023-07-31T04:41:05;13.70;99.90
34985;DHT22;21190;58.750;17.004;2023-07-31T04:43:32;13.70;99.90
34985;DHT22;21190;58.750;17.004;2023-07-31T04:45:59;13.70;99.90
34985;DHT22;21190;58.750;17.004;2023-07-31T04:48:26;13.80;99.90
34985;DHT22;21190;58.750;17.004;2023-07-31T04:50:53;13.80;99.90
34985;DHT22;21190;58.750;17.004;2023-07-31T04:53:20;13.80;99.90
34985;DHT22;21190;58.750;17.004;2023-07-31T04:55:47;13.90;99.90
34985;DHT22;21190;58.750;17.004;2023-07-31T04:58:14;13.90;99.90
34985;DHT22;21190;58.750;17.004;2023-07-31T05:00:41;13.90;99.90
34985;DHT22;21190;58.750;17.004;2023-07-31T05:03:08;13.90;99.90
34985;DHT22;21190;58.750;17.004;2023-07-31T05:05:35;13.90;99.90
34985;DHT22;21190;58.750;17.004;2023-07-31T05:08:02;13.90;99.90
34985;DHT22;21190;58.750;17.004;2023-07-31T05:10:29;13.90;99.90
34985;DHT22;21190;58.750;17.004;2023-07-31T05:12:56;13.90;99.90
34985;DHT22;21190;58.750;17.004;2023-07-31T05:15:23;13.90;99.90
34985;DHT22;21190;58.750;17.004;2023-07-31T05:17:50;13.90;99.90
34985;DHT22;21190;58.750;17.004;2023-07-31T05:20:17;13.90;99.90
34985;DHT22;21190;58.750;17.004;2023-07-31T05:22:44;14.00;99.90
34985;DHT22;21190;58.750;17.004;2023-07-31T05:25:11;14.00;99.90
34985;DHT22;21190;58.750;17.004;2023-07-31T05:27:38;14.00;99.90
34985;DHT22;21190;58.750;17.004;2023-07-31T05:30:06;14.00;99.90
34985;DHT22;21190;58.750;17.004;2023-07-31T05:32:33;14.00;99.90
34985;DHT22;21190;58.750;17.004;2023-07-31T05:35:00;14.00;99.90
34985;DHT22;21190;58.750;17.004;2023-07-31T05:37:27;14.00;99.90
34985;DHT22;21190;58.750;17.004;2023-07-31T05:39:54;14.00;99.90
34985;DHT22;21190;58.750;17.004;2023-07-31T05:42:21;14.00;99.90
34985;DHT22;21190;58.750;17.004;2023-07-31T05:44:48;14.00;99.90
34985;DHT22;21190;58.750;17.004;2023-07-31T05:47:14;14.10;99.90
34985;DHT22;21190;58.750;17.004;2023-07-31T05:49:41;14.00;99.90
34985;DHT22;21190;58.750;17.004;2023-07-31T05:52:08;14.10;99.90
34985;DHT22;21190;58.750;17.004;2023-07-31T05:54:35;14.00;99.90
34985;DHT22;21190;58.750;17.004;2023-07-31T05:57:02;14.10;99.90
34985;DHT22;21190;58.750;17.004;2023-07-31T05:59:29;14.10;99.90
34985;DHT22;21190;58.750;17.004;2023-07-31T06:01:59;14.10;99.90
34985;DHT22;21190;58.750;17.004;2023-07-31T06:04:26;14.10;99.90
34985;DHT22;21190;58.750;17.004;2023-07-31T06:06:54;14.20;99.90
34985;DHT22;21190;58.750;17.004;2023-07-31T06:09:21;14.20;99.90
34985;DHT22;21190;58.750;17.004;2023-07-31T06:11:48;14.20;99.90
34985;DHT22;21190;58.750;17.004;2023-07-31T06:14:15;14.20;99.90
34985;DHT22;21190;58.750;17.004;2023-07-31T06:16:42;14.20;99.90
34985;DHT22;21190;58.750;17.004;2023-07-31T06:19:10;14.20;99.90
34985;DHT22;21190;58.750;17.004;2023-07-31T06:21:37;14.30;99.90
34985;DHT22;21190;58.750;17.004;2023-07-31T06:24:08;14.30;99.90
34985;DHT22;21190;58.750;17.004;2023-07-31T06:26:35;14.30;99.90
34985;DHT22;21190;58.750;17.004;2023-07-31T06:29:03;14.40;99.90
34985;DHT22;21190;58.750;17.004;2023-07-31T06:31:30;14.40;99.90
34985;DHT22;21190;58.750;17.004;2023-07-31T06:33:57;14.40;99.90
34985;DHT22;21190;58.750;17.004;2023-07-31T06:36:24;14.50;99.90
34985;DHT22;21190;58.750;17.004;2023-07-31T06:38:51;14.50;99.90
34985;DHT22;21190;58.750;17.004;2023-07-31T06:41:18;14.50;99.90
34985;DHT22;21190;58.750;17.004;2023-07-31T06:43:45;14.50;99.90
34985;DHT22;21190;58.750;17.004;2023-07-31T06:46:12;14.60;99.90
34985;DHT22;21190;58.750;17.004;2023-07-31T06:48:40;14.60;99.90
34985;DHT22;21190;58.750;17.004;2023-07-31T06:51:07;14.70;99.90
34985;DHT22;21190;58.750;17.004;2023-07-31T06:53:34;14.70;99.90
34985;DHT22;21190;58.750;17.004;2023-07-31T06:56:01;14.70;99.90
34985;DHT22;21190;58.750;17.004;2023-07-31T06:58:28;14.80;99.90
34985;DHT22;21190;58.750;17.004;2023-07-31T07:00:55;14.80;99.90
34985;DHT22;21190;58.750;17.004;2023-07-31T07:03:22;14.80;99.90
34985;DHT22;21190;58.750;17.004;2023-07-31T07:05:49;14.70;99.90
34985;DHT22;21190;58.750;17.004;2023-07-31T07:08:16;14.80;99.90
34985;DHT22;21190;58.750;17.004;2023-07-31T07:10:44;14.80;99.90
34985;DHT22;21190;58.750;17.004;2023-07-31T07:13:11;14.80;99.90
34985;DHT22;21190;58.750;17.004;2023-07-31T07:15:39;14.90;99.90
34985;DHT22;21190;58.750;17.004;2023-07-31T07:18:06;14.90;99.90
34985;DHT22;21190;58.750;17.004;2023-07-31T07:20:34;14.90;99.90
34985;DHT22;21190;58.750;17.004;2023-07-31T07:23:01;15.00;99.90
34985;DHT22;21190;58.750;17.004;2023-07-31T07:25:28;14.90;99.90
34985;DHT22;21190;58.750;17.004;2023-07-31T07:27:55;15.00;99.90
34985;DHT22;21190;58.750;17.004;2023-07-31T07:30:22;15.00;99.90
34985;DHT22;21190;58.750;17.004;2023-07-31T07:32:51;15.00;99.90
34985;DHT22;21190;58.750;17.004;2023-07-31T07:35:18;15.00;99.90
34985;DHT22;21190;58.750;17.004;2023-07-31T07:37:48;15.10;99.90
34985;DHT22;21190;58.750;17.004;2023-07-31T07:40:19;15.20;99.90
34985;DHT22;21190;58.750;17.004;2023-07-31T07:42:46;15.10;99.90
34985;DHT22;21190;58.750;17.004;2023-07-31T07:45:13;15.20;99.90
34985;DHT22;21190;58.750;17.004;2023-07-31T07:47:41;15.20;99.90
34985;DHT22;21190;58.750;17.004;2023-07-31T07:50:08;15.20;99.90
34985;DHT22;21190;58.750;17.004;2023-07-31T07:52:35;15.20;99.90
34985;DHT22;21190;58.750;17.004;2023-07-31T07:55:03;15.20;99.90
34985;DHT22;21190;58.750;17.004;2023-07-31T07:57:30;15.30;99.90
34985;DHT22;21190;58.750;17.004;2023-07-31T07:59:57;15.30;99.90
34985;DHT22;21190;58.750;17.004;2023-07-31T08:02:24;15.30;99.90
34985;DHT22;21190;58.750;17.004;2023-07-31T08:04:51;15.20;99.90
34985;DHT22;21190;58.750;17.004;2023-07-31T08:07:18;15.20;99.90
34985;DHT22;21190;58.750;17.004;2023-07-31T08:09:45;15.30;99.90
34985;DHT22;21190;58.750;17.004;2023-07-31T08:12:12;15.30;99.90
34985;DHT22;21190;58.750;17.004;2023-07-31T08:14:39;15.30;99.90
34985;DHT22;21190;58.750;17.004;2023-07-31T08:17:06;15.20;99.90
34985;DHT22;21190;58.750;17.004;2023-07-31T08:19:33;15.20;99.90
34985;DHT22;21190;58.750;17.004;2023-07-31T08:22:00;15.20;99.90
34985;DHT22;21190;58.750;17.004;2023-07-31T08:24:27;15.20;99.90
34985;DHT22;21190;58.750;17.004;2023-07-31T08:26:54;15.20;99.90
34985;DHT22;21190;58.750;17.004;2023-07-31T08:29:21;15.20;99.90
34985;DHT22;21190;58.750;17.004;2023-07-31T08:31:48;15.30;99.90
34985;DHT22;21190;58.750;17.004;2023-07-31T08:34:15;15.40;99.90
34985;DHT22;21190;58.750;17.004;2023-07-31T08:36:42;15.40;99.90
34985;DHT22;21190;58.750;17.004;2023-07-31T08:39:09;15.40;99.90
34985;DHT22;21190;58.750;17.004;2023-07-31T08:41:39;15.50;99.90
34985;DHT22;21190;58.750;17.004;2023-07-31T08:44:07;15.50;99.90
34985;DHT22;21190;58.750;17.004;2023-07-31T08:46:34;15.60;99.90
34985;DHT22;21190;58.750;17.004;2023-07-31T08:49:04;15.70;99.90
34985;DHT22;21190;58.750;17.004;2023-07-31T08:51:34;15.60;99.90
34985;DHT22;21190;58.750;17.004;2023-07-31T08:54:02;15.70;99.90
34985;DHT22;21190;58.750;17.004;2023-07-31T08:56:32;15.70;99.90
34985;DHT22;21190;58.750;17.004;2023-07-31T08:59:01;15.80;99.90
34985;DHT22;21190;58.750;17.004;2023-07-31T09:01:29;15.80;99.90
34985;DHT22;21190;58.750;17.004;2023-07-31T09:03:59;15.90;99.90
34985;DHT22;21190;58.750;17.004;2023-07-31T09:06:28;15.90;99.90
34985;DHT22;21190;58.750;17.004;2023-07-31T09:08:56;16.00;99.90
34985;DHT22;21190;58.750;17.004;2023-07-31T09:11:24;16.00;99.90
34985;DHT22;21190;58.750;17.004;2023-07-31T09:13:52;16.10;99.90
34985;DHT22;21190;58.750;17.004;2023-07-31T09:16:27;16.10;99.90
34985;DHT22;21190;58.750;17.004;2023-07-31T09:18:57;16.20;99.90
34985;DHT22;21190;58.750;17.004;2023-07-31T09:21:25;16.30;99.90
34985;DHT22;21190;58.750;17.004;2023-07-31T09:23:54;16.30;99.90
34985;DHT22;21190;58.750;17.004;2023-07-31T09:26:36;16.40;99.90
34985;DHT22;21190;58.750;17.004;2023-07-31T09:29:18;16.40;99.90
34985;DHT22;21190;58.750;17.004;2023-07-31T09:31:46;16.40;99.90
34985;DHT22;21190;58.750;17.004;2023-07-31T09:34:13;16.40;99.90
34985;DHT22;21190;58.750;17.004;2023-07-31T09:36:43;16.40;99.90
34985;DHT22;21190;58.750;17.004;2023-07-31T09:39:11;16.40;99.90
34985;DHT22;21190;58.750;17.004;2023-07-31T09:41:45;16.40;99.90
34985;DHT22;21190;58.750;17.004;2023-07-31T09:44:13;16.50;99.90
34985;DHT22;21190;58.750;17.004;2023-07-31T09:46:40;16.50;99.90
34985;DHT22;21190;58.750;17.004;2023-07-31T09:51:37;16.60;99.90
34985;DHT22;21190;58.750;17.004;2023-07-31T09:54:14;16.70;99.90
34985;DHT22;21190;58.750;17.004;2023-07-31T09:56:46;16.70;99.90
34985;DHT22;21190;58.750;17.004;2023-07-31T09:59:18;16.70;99.90
34985;DHT22;21190;58.750;17.004;2023-07-31T10:01:50;16.70;99.90
34985;DHT22;21190;58.750;17.004;2023-07-31T10:04:21;16.70;99.90
34985;DHT22;21190;58.750;17.004;2023-07-31T10:06:53;16.80;99.90
34985;DHT22;21190;58.750;17.004;2023-07-31T10:09:21;16.80;99.90
34985;DHT22;21190;58.750;17.004;2023-07-31T10:11:58;16.90;99.90
34985;DHT22;21190;58.750;17.004;2023-07-31T10:14:26;16.90;99.90
34985;DHT22;21190;58.750;17.004;2023-07-31T10:16:53;16.90;99.90
34985;DHT22;21190;58.750;17.004;2023-07-31T10:19:20;17.00;99.90
34985;DHT22;21190;58.750;17.004;2023-07-31T10:21:49;17.10;99.90
34985;DHT22;21190;58.750;17.004;2023-07-31T10:24:16;17.10;99.90
34985;DHT22;21190;58.750;17.004;2023-07-31T10:26:45;17.10;99.90
34985;DHT22;21190;58.750;17.004;2023-07-31T10:29:15;17.10;99.90
34985;DHT22;21190;58.750;17.004;2023-07-31T10:31:43;17.20;99.90
34985;DHT22;21190;58.750;17.004;2023-07-31T10:34:10;17.20;99.90
34985;DHT22;21190;58.750;17.004;2023-07-31T10:36:37;17.20;99.90
34985;DHT22;21190;58.750;17.004;2023-07-31T10:39:37;17.20;99.90
34985;DHT22;21190;58.750;17.004;2023-07-31T10:42:12;17.20;99.90
34985;DHT22;21190;58.750;17.004;2023-07-31T10:44:47;17.20;99.90
34985;DHT22;21190;58.750;17.004;2023-07-31T10:47:17;17.20;99.90
34985;DHT22;21190;58.750;17.004;2023-07-31T10:49:45;17.20;99.90
34985;DHT22;21190;58.750;17.004;2023-07-31T10:52:13;17.20;99.90
34985;DHT22;21190;58.750;17.004;2023-07-31T10:54:40;17.20;99.90
34985;DHT22;21190;58.750;17.004;2023-07-31T10:57:21;17.30;99.90
34985;DHT22;21190;58.750;17.004;2023-07-31T10:59:49;17.30;99.90
34985;DHT22;21190;58.750;17.004;2023-07-31T11:02:26;17.30;99.90
34985;DHT22;21190;58.750;17.004;2023-07-31T11:05:09;17.40;99.90
34985;DHT22;21190;58.750;17.004;2023-07-31T11:07:56;17.40;99.90
34985;DHT22;21190;58.750;17.004;2023-07-31T11:10:23;17.40;99.90
34985;DHT22;21190;58.750;17.004;2023-07-31T11:12:52;17.50;99.90
34985;DHT22;21190;58.750;17.004;2023-07-31T11:15:19;17.40;99.90
34985;DHT22;21190;58.750;17.004;2023-07-31T11:17:46;17.40;99.90
34985;DHT22;21190;58.750;17.004;2023-07-31T11:20:13;17.40;99.90
34985;DHT22;21190;58.750;17.004;2023-07-31T11:22:41;17.50;99.90
34985;DHT22;21190;58.750;17.004;2023-07-31T11:25:08;17.50;99.90
34985;DHT22;21190;58.750;17.004;2023-07-31T11:27:39;17.60;99.90
34985;DHT22;21190;58.750;17.004;2023-07-31T11:30:07;17.70;99.90
34985;DHT22;21190;58.750;17.004;2023-07-31T11:32:37;17.70;99.90
34985;DHT22;21190;58.750;17.004;2023-07-31T11:35:04;17.70;99.90
34985;DHT22;21190;58.750;17.004;2023-07-31T11:37:42;17.70;99.90
34985;DHT22;21190;58.750;17.004;2023-07-31T11:40:10;17.80;99.90
34985;DHT22;21190;58.750;17.004;2023-07-31T11:42:38;17.80;99.90
34985;DHT22;21190;58.750;17.004;2023-07-31T11:45:06;17.80;99.90
34985;DHT22;21190;58.750;17.004;2023-07-31T11:47:34;17.90;99.90
34985;DHT22;21190;58.750;17.004;2023-07-31T11:50:03;17.90;99.90
34985;DHT22;21190;58.750;17.004;2023-07-31T11:52:34;17.90;99.90
34985;DHT22;21190;58.750;17.004;2023-07-31T11:55:02;18.00;99.90
34985;DHT22;21190;58.750;17.004;2023-07-31T11:57:29;18.00;99.90
34985;DHT22;21190;58.750;17.004;2023-07-31T11:59:57;18.00;99.90
34985;DHT22;21190;58.750;17.004;2023-07-31T12:02:24;18.10;99.90
34985;DHT22;21190;58.750;17.004;2023-07-31T12:04:51;18.00;99.90
34985;DHT22;21190;58.750;17.004;2023-07-31T12:07:18;18.00;99.90
34985;DHT22;21190;58.750;17.004;2023-07-31T12:09:55;18.00;99.90
34985;DHT22;21190;58.750;17.004;2023-07-31T12:12:24;18.10;99.90
34985;DHT22;21190;58.750;17.004;2023-07-31T12:14:51;18.10;99.90
34985;DHT22;21190;58.750;17.004;2023-07-31T12:17:19;18.10;99.90
34985;DHT22;21190;58.750;17.004;2023-07-31T12:19:48;18.10;99.90
34985;DHT22;21190;58.750;17.004;2023-07-31T12:22:16;18.30;99.90
34985;DHT22;21190;58.750;17.004;2023-07-31T12:24:44;18.30;99.90
34985;DHT22;21190;58.750;17.004;2023-07-31T12:27:12;18.40;99.90
34985;DHT22;21190;58.750;17.004;2023-07-31T12:29:41;18.40;99.90
34985;DHT22;21190;58.750;17.004;2023-07-31T12:32:21;18.40;99.90
34985;DHT22;21190;58.750;17.004;2023-07-31T12:34:49;18.50;99.90
34985;DHT22;21190;58.750;17.004;2023-07-31T12:37:16;18.50;99.90
34985;DHT22;21190;58.750;17.004;2023-07-31T12:39:43;18.60;99.90
34985;DHT22;21190;58.750;17.004;2023-07-31T12:42:10;18.60;99.90
34985;DHT22;21190;58.750;17.004;2023-07-31T12:44:37;18.70;99.90
34985;DHT22;21190;58.750;17.004;2023-07-31T12:47:04;18.60;99.90
34985;DHT22;21190;58.750;17.004;2023-07-31T12:49:31;18.60;99.90
34985;DHT22;21190;58.750;17.004;2023-07-31T12:51:58;18.50;99.90
34985;DHT22;21190;58.750;17.004;2023-07-31T12:54:25;18.50;99.90
34985;DHT22;21190;58.750;17.004;2023-07-31T12:56:52;18.50;99.90
34985;DHT22;21190;58.750;17.004;2023-07-31T12:59:19;18.30;99.90
34985;DHT22;21190;58.750;17.004;2023-07-31T13:01:46;18.30;99.90
34985;DHT22;21190;58.750;17.004;2023-07-31T13:04:13;18.30;99.90
34985;DHT22;21190;58.750;17.004;2023-07-31T13:06:40;18.30;99.90
34985;DHT22;21190;58.750;17.004;2023-07-31T13:09:08;18.30;99.90
34985;DHT22;21190;58.750;17.004;2023-07-31T13:11:36;18.30;99.90
34985;DHT22;21190;58.750;17.004;2023-07-31T13:14:02;18.40;99.90
34985;DHT22;21190;58.750;17.004;2023-07-31T13:16:29;18.40;99.90
34985;DHT22;21190;58.750;17.004;2023-07-31T13:18:56;18.50;99.90
34985;DHT22;21190;58.750;17.004;2023-07-31T13:21:23;18.50;99.90
34985;DHT22;21190;58.750;17.004;2023-07-31T13:23:50;18.50;99.90
34985;DHT22;21190;58.750;17.004;2023-07-31T13:26:17;18.50;99.90
34985;DHT22;21190;58.750;17.004;2023-07-31T13:28:44;18.60;99.90
34985;DHT22;21190;58.750;17.004;2023-07-31T13:31:11;18.70;99.90
34985;DHT22;21190;58.750;17.004;2023-07-31T13:33:38;18.70;99.90
34985;DHT22;21190;58.750;17.004;2023-07-31T13:36:08;18.80;99.90
34985;DHT22;21190;58.750;17.004;2023-07-31T13:38:35;18.80;99.90
34985;DHT22;21190;58.750;17.004;2023-07-31T13:41:02;18.80;99.90
34985;DHT22;21190;58.750;17.004;2023-07-31T13:43:30;18.80;99.90
34985;DHT22;21190;58.750;17.004;2023-07-31T13:45:57;18.70;99.90
34985;DHT22;21190;58.750;17.004;2023-07-31T13:48:24;18.60;99.90
34985;DHT22;21190;58.750;17.004;2023-07-31T13:50:51;18.70;99.90
34985;DHT22;21190;58.750;17.004;2023-07-31T13:53:17;18.70;99.90
34985;DHT22;21190;58.750;17.004;2023-07-31T13:55:44;18.80;99.90
34985;DHT22;21190;58.750;17.004;2023-07-31T13:58:12;18.80;99.90
34985;DHT22;21190;58.750;17.004;2023-07-31T14:00:39;18.80;99.90
34985;DHT22;21190;58.750;17.004;2023-07-31T14:03:06;18.80;99.90
34985;DHT22;21190;58.750;17.004;2023-07-31T14:05:33;18.90;99.90
34985;DHT22;21190;58.750;17.004;2023-07-31T14:08:00;19.00;99.90
34985;DHT22;21190;58.750;17.004;2023-07-31T14:10:27;19.00;99.90
34985;DHT22;21190;58.750;17.004;2023-07-31T14:12:54;19.10;99.90
34985;DHT22;21190;58.750;17.004;2023-07-31T14:15:21;19.20;99.90
34985;DHT22;21190;58.750;17.004;2023-07-31T14:17:48;19.20;99.90
34985;DHT22;21190;58.750;17.004;2023-07-31T14:20:15;19.30;99.90
34985;DHT22;21190;58.750;17.004;2023-07-31T14:22:43;19.30;99.90
34985;DHT22;21190;58.750;17.004;2023-07-31T14:25:10;19.30;99.90
34985;DHT22;21190;58.750;17.004;2023-07-31T14:27:37;19.40;99.90
34985;DHT22;21190;58.750;17.004;2023-07-31T14:30:04;19.40;99.90
34985;DHT22;21190;58.750;17.004;2023-07-31T14:32:31;19.30;99.90
34985;DHT22;21190;58.750;17.004;2023-07-31T14:34:58;19.30;99.90
34985;DHT22;21190;58.750;17.004;2023-07-31T14:37:26;19.30;99.90
34985;DHT22;21190;58.750;17.004;2023-07-31T14:39:54;19.30;99.90
34985;DHT22;21190;58.750;17.004;2023-07-31T14:42:21;19.30;99.90
34985;DHT22;21190;58.750;17.004;2023-07-31T14:44:48;19.30;99.90
34985;DHT22;21190;58.750;17.004;2023-07-31T14:47:15;19.20;99.90
34985;DHT22;21190;58.750;17.004;2023-07-31T14:49:42;19.20;99.90
34985;DHT22;21190;58.750;17.004;2023-07-31T14:52:09;19.10;99.90
34985;DHT22;21190;58.750;17.004;2023-07-31T14:54:36;19.10;99.90
34985;DHT22;21190;58.750;17.004;2023-07-31T14:57:03;19.10;99.90
34985;DHT22;21190;58.750;17.004;2023-07-31T14:59:30;19.00;99.90
34985;DHT22;21190;58.750;17.004;2023-07-31T15:01:57;18.90;99.90
34985;DHT22;21190;58.750;17.004;2023-07-31T15:04:24;18.80;99.90
34985;DHT22;21190;58.750;17.004;2023-07-31T15:06:52;18.80;99.90
34985;DHT22;21190;58.750;17.004;2023-07-31T15:09:19;18.70;99.90
34985;DHT22;21190;58.750;17.004;2023-07-31T15:11:46;18.60;99.90
34985;DHT22;21190;58.750;17.004;2023-07-31T15:14:14;18.40;99.90
34985;DHT22;21190;58.750;17.004;2023-07-31T15:16:43;18.40;99.90
34985;DHT22;21190;58.750;17.004;2023-07-31T15:19:10;18.20;99.90
34985;DHT22;21190;58.750;17.004;2023-07-31T15:21:40;18.10;99.90
34985;DHT22;21190;58.750;17.004;2023-07-31T15:24:07;18.00;99.90